Rockfall, CT (06481)

3:52 PM EDT on September 03, 2015 (GMT -0400)
KCTMERID4 | | Change Station
CLOSE
Current Station
Personal Weather Station
Location: Meriden, CT
Elevation: 377 ft
Nearby Weather Stations

Elev 377 ft 41.55 °N, 72.75 °W | Updated 2 minutes ago

Partly Cloudy
Partly Cloudy
91.2 °F
Feels Like 88 °F
N
0.0
Wind Variable Wind from North
Gusts 0.0 mph

Today
High -- | Low -- °F
--% Chance of Precip.
Yesterday
High -- | Low -- °F
Precip. -- in
6:18 AM 7:21 PM
Waning Gibbous, 67% visible
Pressure 29.82 in
Visibility 9.0 miles
Clouds Few 4800 ft
Heat Index 88 °F
Dew Point 47 °F
Humidity 22%
Rainfall 0.00 in
Snow Depth Not available.
UV 6 out of 12
Pollen 8.30 out of 12
Air Quality Not available.
Flu Activity Not available.
METAR KMMK 031853Z AUTO 01005KT 9SM FEW048 33/19 A2983 RMK AO2 SLP098 T03280189 TSNO
Pressure 29.82 in
Visibility 9.0 miles
Clouds Few 4800 ft
Heat Index 88 °F
Dew Point 47 °F
Humidity 22%
Rainfall 0.00 in
Snow Depth Not available.
UV 6 out of 12
Pollen 8.30 out of 12
Air Quality Not available.
Flu Activity Not available.
METAR KMMK 031853Z AUTO 01005KT 9SM FEW048 33/19 A2983 RMK AO2 SLP098 T03280189 TSNO

10-Day Weather Forecast

×

Almanac

Astronomy

Sep. 03, 2015 Rise Set
Actual Time
Civil Twilight
Nautical Twilight
Astronomical Twilight
Moon
Length of Visible Light
Length of Day
Tomorrow will be .
, % of the Moon is Illuminated

Today's Extremes

State Highs State Lows

Community

WunderPhotos

Upload Photos

1,852,017 photos uploaded!

WunderBlogs® & News

Nearby

Air Quality

  Air Quality AQ Index Pollutant
Not available.

Snow Depth

Station Depth Elevation

Earthquake Activity

City Distance Mag. Time & Date
Minimum magnitude displayed is 2.5.

Coastal Water Temperatures

Place Temperature

Stations

Nearby Weather Stations

Station Location Temp. Windchill Dew Point Humidity Wind Precip. Elev Updated Type